createdAt,value
2018-07-07T00:01:07.862Z,87.60
2018-07-07T00:03:37.353Z,87.00
2018-07-07T00:06:06.006Z,87.10
2018-07-07T00:08:34.738Z,87.10
2018-07-07T00:11:03.540Z,87.40
2018-07-07T00:13:32.320Z,87.70
2018-07-07T00:16:00.983Z,88.80
2018-07-07T00:18:29.580Z,88.80
2018-07-07T00:20:58.193Z,89.00
2018-07-07T00:23:26.854Z,89.00
2018-07-07T00:25:55.465Z,89.20
2018-07-07T00:28:24.165Z,89.10
2018-07-07T00:30:52.820Z,88.80
2018-07-07T00:33:21.420Z,88.80
2018-07-07T00:35:50.038Z,88.80
2018-07-07T00:38:18.864Z,88.90
2018-07-07T00:40:47.537Z,89.10
2018-07-07T00:43:16.162Z,89.30
2018-07-07T00:45:44.728Z,89.20
2018-07-07T00:48:13.363Z,89.30
2018-07-07T00:50:42.045Z,88.90
2018-07-07T00:53:10.645Z,89.10
2018-07-07T00:55:39.216Z,89.00
2018-07-07T00:58:07.816Z,88.50
2018-07-07T01:00:52.497Z,88.60
2018-07-07T01:03:22.042Z,88.50
2018-07-07T01:05:51.150Z,88.60
2018-07-07T01:08:19.734Z,88.60
2018-07-07T01:10:48.415Z,89.00
2018-07-07T01:15:45.420Z,89.60
2018-07-07T01:18:14.107Z,89.30
2018-07-07T01:20:42.703Z,89.50
2018-07-07T01:23:11.283Z,89.70
2018-07-07T01:25:39.860Z,89.20
2018-07-07T01:28:08.475Z,89.00
2018-07-07T01:30:37.027Z,88.80
2018-07-07T01:33:05.652Z,89.60
2018-07-07T01:35:34.219Z,90.20
2018-07-07T01:38:02.818Z,90.30
2018-07-07T01:40:31.423Z,89.70
2018-07-07T01:43:00.007Z,89.20
2018-07-07T01:45:28.662Z,89.00
2018-07-07T01:47:57.265Z,89.40
2018-07-07T01:50:25.835Z,89.60
2018-07-07T01:52:54.430Z,90.10
2018-07-07T01:55:23.095Z,90.20
2018-07-07T01:57:51.690Z,90.20
2018-07-07T02:00:20.331Z,90.50
2018-07-07T02:02:48.943Z,90.40
2018-07-07T02:05:17.641Z,90.40
2018-07-07T02:07:46.283Z,91.10
2018-07-07T02:10:15.019Z,91.00
2018-07-07T02:12:43.662Z,91.10
2018-07-07T02:15:12.360Z,90.90
2018-07-07T02:20:09.593Z,90.60
2018-07-07T02:22:38.310Z,90.10
2018-07-07T02:25:07.013Z,90.20
2018-07-07T02:27:35.676Z,90.70
2018-07-07T02:30:04.783Z,90.80
2018-07-07T02:32:33.543Z,90.90
2018-07-07T02:35:02.121Z,90.40
2018-07-07T02:37:30.813Z,90.80
2018-07-07T02:39:59.410Z,91.00
2018-07-07T02:42:28.007Z,91.00
2018-07-07T02:44:56.571Z,91.30
2018-07-07T02:47:25.153Z,91.50
2018-07-07T02:49:53.706Z,91.90
2018-07-07T02:52:22.317Z,92.40
2018-07-07T02:54:50.911Z,92.30
2018-07-07T02:57:19.471Z,92.60
2018-07-07T02:59:48.110Z,92.40
2018-07-07T03:02:16.724Z,92.20
2018-07-07T03:04:45.356Z,92.30
2018-07-07T03:07:14.004Z,91.70
2018-07-07T03:09:42.666Z,91.70
2018-07-07T03:12:11.306Z,91.50
2018-07-07T03:14:39.898Z,91.30
2018-07-07T03:17:08.467Z,91.50
2018-07-07T03:19:37.063Z,91.40
2018-07-07T03:22:05.679Z,91.50
2018-07-07T03:24:34.254Z,92.00
2018-07-07T03:27:02.866Z,92.10
2018-07-07T03:29:31.453Z,92.00
2018-07-07T03:32:00.045Z,92.00
2018-07-07T03:34:28.671Z,91.90
2018-07-07T03:36:57.263Z,92.00
2018-07-07T03:39:25.886Z,92.20
2018-07-07T03:41:54.493Z,92.00
2018-07-07T03:44:23.085Z,91.90
2018-07-07T03:46:51.681Z,91.60
2018-07-07T03:49:20.300Z,91.00
2018-07-07T03:51:48.936Z,91.20
2018-07-07T03:54:17.497Z,90.90
2018-07-07T03:56:46.079Z,90.90
2018-07-07T03:59:14.793Z,90.90
2018-07-07T04:01:43.586Z,91.50
2018-07-07T04:04:12.251Z,91.60
2018-07-07T04:06:40.861Z,91.20
2018-07-07T04:09:09.510Z,91.00
2018-07-07T04:11:38.146Z,90.50
2018-07-07T04:14:06.836Z,90.70
2018-07-07T04:16:35.471Z,91.00
2018-07-07T04:19:04.123Z,90.40
2018-07-07T04:21:32.725Z,90.10
2018-07-07T04:24:01.339Z,90.10
2018-07-07T04:26:29.951Z,90.30
2018-07-07T04:28:58.581Z,90.60
2018-07-07T04:31:27.159Z,91.00
2018-07-07T04:33:55.784Z,91.20
2018-07-07T04:36:24.376Z,91.30
2018-07-07T04:38:52.951Z,91.70
2018-07-07T04:41:21.506Z,92.00
2018-07-07T04:43:50.103Z,91.90
2018-07-07T04:46:18.725Z,91.10
2018-07-07T04:48:47.431Z,91.40
2018-07-07T04:51:16.184Z,91.40
2018-07-07T04:53:44.889Z,91.50
2018-07-07T04:56:13.581Z,90.10
2018-07-07T04:58:42.261Z,88.60
2018-07-07T05:01:10.978Z,86.50
2018-07-07T05:03:39.728Z,83.40
2018-07-07T05:06:08.345Z,81.20
2018-07-07T05:08:37.007Z,83.60
2018-07-07T05:11:05.653Z,81.80
2018-07-07T05:13:34.298Z,80.00
2018-07-07T05:16:02.914Z,79.20
2018-07-07T05:18:31.626Z,79.00
2018-07-07T05:21:00.270Z,79.00
2018-07-07T05:23:28.934Z,78.40
2018-07-07T05:25:57.598Z,77.70
2018-07-07T05:28:26.269Z,76.70
2018-07-07T05:30:54.900Z,76.50
2018-07-07T05:33:23.501Z,75.60
2018-07-07T05:35:52.159Z,74.80
2018-07-07T05:38:20.829Z,75.50
2018-07-07T05:40:49.579Z,75.10
2018-07-07T05:43:18.203Z,73.50
2018-07-07T05:45:46.839Z,72.90
2018-07-07T05:48:15.439Z,73.00
2018-07-07T05:50:43.996Z,73.50
2018-07-07T05:53:12.634Z,74.20
2018-07-07T05:55:46.886Z,72.70
2018-07-07T05:58:15.493Z,72.20
2018-07-07T06:00:44.091Z,71.60
2018-07-07T06:03:12.731Z,70.30
2018-07-07T06:05:41.338Z,69.90
2018-07-07T06:08:09.998Z,69.70
2018-07-07T06:10:38.686Z,68.50
2018-07-07T06:13:07.379Z,67.80
2018-07-07T06:18:04.709Z,66.70
2018-07-07T06:20:33.648Z,66.30
2018-07-07T06:23:02.360Z,67.20
2018-07-07T06:25:30.993Z,67.30
2018-07-07T06:27:59.981Z,66.50
2018-07-07T06:30:28.900Z,66.30
2018-07-07T06:32:57.607Z,66.40
2018-07-07T06:35:26.700Z,67.00
2018-07-07T06:37:56.877Z,66.70
2018-07-07T06:40:25.548Z,66.00
2018-07-07T06:42:54.384Z,65.40
2018-07-07T06:45:23.519Z,63.00
2018-07-07T06:47:52.281Z,62.80
2018-07-07T06:50:20.907Z,62.60
2018-07-07T06:52:49.594Z,62.50
2018-07-07T06:55:18.243Z,63.00
2018-07-07T06:57:46.944Z,62.70
2018-07-07T07:00:15.749Z,62.60
2018-07-07T07:02:44.679Z,62.60
2018-07-07T07:05:13.291Z,63.30
2018-07-07T07:07:42.019Z,61.30
2018-07-07T07:10:10.747Z,60.60
2018-07-07T07:12:39.496Z,60.30
2018-07-07T07:15:08.302Z,60.10
2018-07-07T07:17:36.951Z,59.80
2018-07-07T07:20:05.724Z,59.20
2018-07-07T07:22:35.226Z,59.60
2018-07-07T07:25:03.956Z,59.40
2018-07-07T07:27:32.674Z,59.30
2018-07-07T07:30:01.286Z,58.40
2018-07-07T07:32:30.359Z,57.40
2018-07-07T07:34:59.069Z,56.20
2018-07-07T07:37:27.681Z,54.10
2018-07-07T07:39:56.748Z,54.80
2018-07-07T07:42:25.336Z,54.00
2018-07-07T07:44:54.597Z,51.40
2018-07-07T07:47:23.271Z,51.00
2018-07-07T07:49:51.876Z,51.10
2018-07-07T07:52:20.464Z,50.60
2018-07-07T07:54:49.139Z,49.20
2018-07-07T07:57:17.798Z,49.40
2018-07-07T07:59:46.423Z,49.30
2018-07-07T08:02:15.118Z,49.90
2018-07-07T08:04:43.853Z,50.80
2018-07-07T08:07:12.539Z,50.40
2018-07-07T08:09:41.149Z,48.30
2018-07-07T08:12:09.768Z,46.50
2018-07-07T08:14:38.469Z,45.30
2018-07-07T08:17:07.261Z,42.30
2018-07-07T08:19:35.988Z,39.10
2018-07-07T08:22:04.728Z,39.80
2018-07-07T08:24:33.418Z,38.70
2018-07-07T08:27:02.068Z,38.90
2018-07-07T08:29:30.751Z,37.40
2018-07-07T08:31:59.426Z,36.90
2018-07-07T08:34:28.072Z,37.70
2018-07-07T08:36:57.449Z,38.60
2018-07-07T08:39:26.123Z,38.30
2018-07-07T08:41:54.793Z,36.80
2018-07-07T08:44:23.459Z,36.70
2018-07-07T08:46:52.192Z,37.00
2018-07-07T08:49:20.905Z,37.00
2018-07-07T08:51:49.636Z,36.60
2018-07-07T08:54:18.312Z,37.40
2018-07-07T08:56:47.397Z,37.30
2018-07-07T08:59:16.060Z,36.00
2018-07-07T09:04:13.226Z,35.20
2018-07-07T09:09:10.778Z,35.10
2018-07-07T09:11:40.203Z,35.60
2018-07-07T09:14:08.850Z,35.10
2018-07-07T09:16:37.558Z,35.70
2018-07-07T09:19:06.218Z,34.50
2018-07-07T09:21:34.875Z,33.20
2018-07-07T09:24:03.603Z,34.30
2018-07-07T09:26:32.246Z,34.20
2018-07-07T09:29:00.853Z,34.40
2018-07-07T09:31:29.438Z,35.30
2018-07-07T09:33:58.083Z,35.00
2018-07-07T09:36:26.939Z,34.70
2018-07-07T09:38:55.627Z,33.50
2018-07-07T09:41:24.370Z,33.00
2018-07-07T09:43:53.058Z,32.70
2018-07-07T09:46:21.714Z,33.00
2018-07-07T09:48:50.359Z,34.00
2018-07-07T09:51:18.991Z,33.40
2018-07-07T09:53:47.641Z,33.20
2018-07-07T09:56:16.325Z,32.80
2018-07-07T09:58:44.995Z,32.40
2018-07-07T10:01:13.717Z,32.70
2018-07-07T10:03:42.368Z,32.10
2018-07-07T10:06:11.052Z,31.90
2018-07-07T10:08:39.771Z,32.00
2018-07-07T10:11:08.413Z,32.30
2018-07-07T10:13:37.073Z,31.50
2018-07-07T10:16:05.693Z,32.30
2018-07-07T10:18:34.424Z,30.60
2018-07-07T10:21:03.207Z,30.60
2018-07-07T10:23:31.885Z,31.50
2018-07-07T10:26:00.536Z,33.40
2018-07-07T10:28:29.381Z,30.00
2018-07-07T10:30:57.997Z,30.20
2018-07-07T10:33:26.702Z,29.30
2018-07-07T10:35:55.347Z,29.60
2018-07-07T10:38:23.989Z,30.00
2018-07-07T10:40:52.616Z,30.30
2018-07-07T10:43:21.250Z,30.50
2018-07-07T10:45:50.094Z,30.50
2018-07-07T10:48:18.525Z,30.50
2018-07-07T10:50:47.136Z,29.80
2018-07-07T10:53:15.763Z,31.00
2018-07-07T10:55:45.363Z,31.20
2018-07-07T10:58:14.061Z,29.30
2018-07-07T11:00:42.721Z,29.00
2018-07-07T11:03:11.400Z,29.40
2018-07-07T11:05:39.987Z,28.90
2018-07-07T11:08:10.846Z,29.20
2018-07-07T11:10:39.531Z,29.20
2018-07-07T11:13:08.184Z,29.30
2018-07-07T11:15:36.872Z,30.70
2018-07-07T11:18:05.631Z,30.10
2018-07-07T11:20:39.844Z,29.90
2018-07-07T11:23:08.522Z,29.30
2018-07-07T11:25:37.282Z,29.10
2018-07-07T11:28:05.972Z,29.70
2018-07-07T11:30:34.620Z,29.40
2018-07-07T11:33:05.094Z,29.20
2018-07-07T11:35:33.789Z,29.10
2018-07-07T11:38:03.476Z,29.50
2018-07-07T11:40:32.452Z,29.20
2018-07-07T11:43:01.774Z,29.80
2018-07-07T11:45:30.667Z,29.90
2018-07-07T11:47:59.561Z,29.10
2018-07-07T11:50:28.443Z,28.50
2018-07-07T11:52:57.167Z,29.30
2018-07-07T11:55:25.938Z,28.90
2018-07-07T11:57:54.550Z,28.30
2018-07-07T12:00:23.343Z,28.70
2018-07-07T12:02:52.132Z,27.50
2018-07-07T12:05:20.779Z,28.00
2018-07-07T12:08:00.712Z,28.00
2018-07-07T12:10:18.089Z,27.00
2018-07-07T12:12:46.791Z,27.30
2018-07-07T12:15:15.786Z,26.80
2018-07-07T12:17:44.535Z,26.90
2018-07-07T12:20:13.334Z,26.80
2018-07-07T12:22:42.101Z,27.10
2018-07-07T12:25:10.719Z,26.00
2018-07-07T12:27:39.399Z,26.90
2018-07-07T12:30:08.139Z,26.30
2018-07-07T12:32:36.877Z,26.50
2018-07-07T12:35:05.883Z,27.50
2018-07-07T12:37:34.593Z,26.90
2018-07-07T12:40:04.431Z,26.20
2018-07-07T12:42:33.199Z,26.80
2018-07-07T12:45:02.022Z,25.80
2018-07-07T12:47:30.676Z,25.90
2018-07-07T12:49:59.386Z,25.70
2018-07-07T12:52:28.084Z,25.90
2018-07-07T12:54:56.739Z,25.90
2018-07-07T12:57:25.471Z,25.40
2018-07-07T12:59:54.159Z,25.20
2018-07-07T13:02:22.836Z,25.40
2018-07-07T13:04:52.403Z,25.80
2018-07-07T13:07:21.144Z,26.70
2018-07-07T13:09:56.369Z,28.50
2018-07-07T13:12:25.072Z,28.80
2018-07-07T13:14:53.880Z,29.50
2018-07-07T13:17:29.059Z,29.10
2018-07-07T13:19:58.343Z,28.30
2018-07-07T13:22:32.628Z,27.50
2018-07-07T13:25:01.411Z,27.20
2018-07-07T13:27:32.421Z,28.20
2018-07-07T13:30:01.181Z,28.30
2018-07-07T13:32:30.846Z,28.20
2018-07-07T13:34:59.562Z,28.20
2018-07-07T13:37:28.301Z,28.20
2018-07-07T13:39:57.098Z,28.10
2018-07-07T13:42:25.784Z,27.20
2018-07-07T13:45:00.229Z,27.90
2018-07-07T13:47:29.597Z,27.50
2018-07-07T13:49:59.629Z,27.50
2018-07-07T13:52:28.316Z,28.50
2018-07-07T13:54:57.169Z,28.50
2018-07-07T13:57:25.899Z,29.00
2018-07-07T13:59:54.619Z,29.30
2018-07-07T14:02:23.322Z,29.80
2018-07-07T14:04:52.049Z,29.30
2018-07-07T14:07:20.804Z,30.00
2018-07-07T14:09:49.497Z,29.90
2018-07-07T14:12:18.239Z,30.00
2018-07-07T14:14:47.906Z,30.80
2018-07-07T14:17:16.730Z,31.30
2018-07-07T14:19:45.359Z,32.20
2018-07-07T14:22:18.831Z,32.00
2018-07-07T14:24:47.567Z,33.80
2018-07-07T14:27:16.889Z,34.00
2018-07-07T14:29:45.951Z,34.60
2018-07-07T14:32:14.626Z,34.80
2018-07-07T14:34:43.362Z,34.10
2018-07-07T14:37:12.424Z,35.00
2018-07-07T14:39:59.827Z,34.80
2018-07-07T14:43:00.077Z,35.00
2018-07-07T14:45:29.998Z,35.50
2018-07-07T14:48:01.738Z,36.60
2018-07-07T14:50:30.562Z,37.70
2018-07-07T14:52:59.262Z,36.90
2018-07-07T14:55:29.299Z,37.50
2018-07-07T15:00:27.506Z,36.40
2018-07-07T15:02:57.229Z,36.80
2018-07-07T15:05:25.936Z,37.50
2018-07-07T15:07:54.572Z,38.00
2018-07-07T15:10:23.271Z,38.70
2018-07-07T15:12:52.068Z,39.30
2018-07-07T15:15:20.774Z,39.30
2018-07-07T15:17:49.581Z,39.80
2018-07-07T15:20:18.354Z,39.30
2018-07-07T15:22:47.131Z,39.60
2018-07-07T15:25:15.801Z,39.00
2018-07-07T15:27:44.497Z,40.40
2018-07-07T15:30:13.371Z,40.70
2018-07-07T15:32:42.066Z,40.40
2018-07-07T15:35:10.821Z,40.50
2018-07-07T15:37:39.456Z,41.70
2018-07-07T15:40:08.294Z,42.00
2018-07-07T15:42:36.981Z,43.20
2018-07-07T15:45:05.738Z,45.80
2018-07-07T15:47:34.398Z,50.20
2018-07-07T15:50:03.637Z,52.10
2018-07-07T15:52:37.899Z,53.60
2018-07-07T15:55:07.487Z,53.30
2018-07-07T15:57:36.284Z,52.80
2018-07-07T16:00:07.443Z,54.70
2018-07-07T16:02:36.079Z,56.30
2018-07-07T16:05:05.004Z,58.20
2018-07-07T16:07:33.697Z,60.40
2018-07-07T16:10:02.859Z,59.80
2018-07-07T16:12:31.577Z,62.10
2018-07-07T16:15:00.244Z,63.60
2018-07-07T16:17:28.947Z,63.80
2018-07-07T16:19:57.709Z,64.20
2018-07-07T16:22:26.386Z,66.20
2018-07-07T16:24:55.099Z,65.60
2018-07-07T16:27:23.716Z,66.50
2018-07-07T16:29:52.381Z,66.40
2018-07-07T16:32:26.681Z,69.20
2018-07-07T16:34:55.812Z,70.90
2018-07-07T16:37:24.591Z,73.40
2018-07-07T16:39:53.278Z,74.10
2018-07-07T16:42:22.787Z,75.20
2018-07-07T16:44:52.104Z,76.50
2018-07-07T16:47:20.846Z,78.90
2018-07-07T16:49:50.626Z,77.60
2018-07-07T16:52:19.398Z,78.00
2018-07-07T16:54:48.665Z,79.50
2018-07-07T16:57:17.425Z,79.20
2018-07-07T16:59:46.197Z,79.40
2018-07-07T17:02:14.946Z,85.30
2018-07-07T17:04:43.724Z,86.40
2018-07-07T17:07:12.527Z,86.20
2018-07-07T17:09:41.760Z,86.10
2018-07-07T17:12:10.621Z,85.30
2018-07-07T17:14:39.345Z,85.10
2018-07-07T17:17:09.746Z,83.80
2018-07-07T17:19:38.632Z,82.90
2018-07-07T17:22:07.729Z,82.10
2018-07-07T17:24:36.575Z,81.00
2018-07-07T17:27:05.251Z,81.30
2018-07-07T17:29:33.991Z,83.00
2018-07-07T17:32:03.072Z,82.30
2018-07-07T17:34:31.819Z,82.90
2018-07-07T17:37:00.638Z,82.70
2018-07-07T17:39:29.619Z,84.50
2018-07-07T17:41:58.339Z,79.80
2018-07-07T17:44:27.043Z,82.80
2018-07-07T17:46:55.940Z,84.50
2018-07-07T17:49:24.848Z,86.40
2018-07-07T17:51:53.686Z,85.30
2018-07-07T17:54:22.406Z,85.60
2018-07-07T17:56:51.259Z,84.40
2018-07-07T17:59:21.563Z,84.80
2018-07-07T18:01:50.446Z,83.90
2018-07-07T18:04:19.218Z,82.80
2018-07-07T18:06:47.913Z,85.30
2018-07-07T18:09:16.631Z,85.30
2018-07-07T18:11:45.367Z,85.50
2018-07-07T18:16:45.839Z,86.20
2018-07-07T18:19:14.569Z,86.40
2018-07-07T18:21:43.724Z,85.60
2018-07-07T18:24:12.452Z,83.70
2018-07-07T18:26:41.152Z,84.50
2018-07-07T18:29:09.824Z,84.80
2018-07-07T18:31:38.464Z,84.90
2018-07-07T18:34:07.129Z,85.80
2018-07-07T18:36:35.791Z,86.10
2018-07-07T18:41:33.471Z,86.30
2018-07-07T18:46:30.479Z,86.70
2018-07-07T18:48:59.225Z,87.10
2018-07-07T18:51:27.821Z,86.40
2018-07-07T18:53:56.471Z,85.30
2018-07-07T18:58:53.621Z,84.10
2018-07-07T19:01:22.271Z,84.00
2018-07-07T19:03:50.911Z,84.50
2018-07-07T19:06:19.558Z,85.00
2018-07-07T19:08:48.284Z,85.40
2018-07-07T19:13:46.294Z,85.50
2018-07-07T19:16:14.936Z,86.40
2018-07-07T19:18:43.563Z,87.60
2018-07-07T19:21:17.729Z,87.30
2018-07-07T19:23:52.033Z,87.20
2018-07-07T19:26:28.042Z,87.50
2018-07-07T19:28:56.846Z,87.80
2018-07-07T19:31:25.456Z,88.00
2018-07-07T19:34:59.428Z,88.10
2018-07-07T19:37:28.245Z,87.90
2018-07-07T19:39:56.918Z,88.20
2018-07-07T19:42:27.418Z,88.10
2018-07-07T19:44:56.086Z,88.90
2018-07-07T19:47:24.755Z,89.30
2018-07-07T19:49:53.436Z,89.60
2018-07-07T19:52:22.118Z,89.80
2018-07-07T19:54:50.699Z,89.60
2018-07-07T19:57:19.359Z,89.60
2018-07-07T19:59:47.952Z,89.60
2018-07-07T20:02:16.576Z,89.80
2018-07-07T20:04:45.218Z,89.50
2018-07-07T20:07:14.618Z,88.70
2018-07-07T20:09:43.353Z,88.10
2018-07-07T20:12:12.021Z,88.30
2018-07-07T20:14:40.635Z,89.10
2018-07-07T20:17:12.527Z,89.80
2018-07-07T20:21:58.222Z,90.30
2018-07-07T20:27:17.418Z,89.70
2018-07-07T20:29:46.089Z,88.40
2018-07-07T20:32:20.883Z,88.10
2018-07-07T20:37:18.116Z,87.90
2018-07-07T20:39:46.815Z,88.40
2018-07-07T20:42:15.521Z,88.70
2018-07-07T20:47:12.665Z,88.70
2018-07-07T20:49:41.832Z,88.80
2018-07-07T20:52:10.560Z,89.70
2018-07-07T20:54:44.205Z,90.60
2018-07-07T20:57:12.915Z,91.60
2018-07-07T20:59:41.601Z,91.80
2018-07-07T21:02:10.292Z,92.20
2018-07-07T21:04:38.839Z,92.10
2018-07-07T21:07:07.924Z,92.50
2018-07-07T21:09:36.595Z,92.00
2018-07-07T21:12:05.398Z,92.50
2018-07-07T21:14:34.117Z,92.50
2018-07-07T21:17:02.781Z,93.00
2018-07-07T21:19:31.468Z,92.70
2018-07-07T21:22:00.082Z,92.70
2018-07-07T21:24:28.725Z,92.50
2018-07-07T21:26:57.371Z,93.30
2018-07-07T21:29:26.113Z,93.10
2018-07-07T21:31:54.706Z,93.10
2018-07-07T21:34:23.398Z,93.00
2018-07-07T21:36:52.050Z,92.80
2018-07-07T21:39:20.711Z,92.80
2018-07-07T21:41:49.344Z,92.50
2018-07-07T21:44:18.105Z,92.50
2018-07-07T21:46:46.866Z,92.60
2018-07-07T21:49:15.691Z,92.80
2018-07-07T21:51:44.383Z,93.40
2018-07-07T21:54:12.984Z,93.40
2018-07-07T21:56:41.562Z,93.60
2018-07-07T21:59:15.811Z,93.60
2018-07-07T22:01:57.502Z,93.70
2018-07-07T22:04:33.987Z,93.20
2018-07-07T22:07:12.611Z,93.20
2018-07-07T22:09:42.114Z,93.20
2018-07-07T22:12:10.798Z,93.30
2018-07-07T22:17:13.446Z,93.10
2018-07-07T22:19:42.085Z,93.50
2018-07-07T22:22:11.345Z,93.40
2018-07-07T22:24:41.143Z,93.30
2018-07-07T22:27:11.186Z,93.00
2018-07-07T22:29:39.838Z,93.00
2018-07-07T22:32:13.980Z,93.50
2018-07-07T22:34:43.691Z,93.40
2018-07-07T22:37:12.493Z,93.10
2018-07-07T22:42:12.262Z,93.10
2018-07-07T22:44:42.051Z,93.20
2018-07-07T22:47:10.735Z,93.60
2018-07-07T22:52:08.880Z,93.60
2018-07-07T22:54:37.588Z,93.40
2018-07-07T22:57:06.376Z,93.60
2018-07-07T22:59:35.004Z,93.50
2018-07-07T23:02:03.755Z,94.10
2018-07-07T23:04:32.348Z,94.30
2018-07-07T23:07:00.948Z,94.30
2018-07-07T23:09:29.734Z,94.10
2018-07-07T23:11:58.361Z,94.30
2018-07-07T23:14:27.026Z,94.30
2018-07-07T23:17:00.598Z,93.40
2018-07-07T23:19:29.344Z,93.50
2018-07-07T23:21:58.196Z,93.60
2018-07-07T23:24:26.864Z,93.30
2018-07-07T23:26:55.633Z,93.00
2018-07-07T23:29:24.228Z,92.90
2018-07-07T23:31:52.935Z,93.40
2018-07-07T23:34:21.674Z,93.30
2018-07-07T23:36:50.298Z,93.10
2018-07-07T23:39:19.033Z,93.20
2018-07-07T23:41:47.758Z,93.60
2018-07-07T23:44:16.419Z,94.20
2018-07-07T23:49:13.511Z,93.60
2018-07-07T23:51:42.198Z,93.60
2018-07-07T23:54:10.825Z,93.80
2018-07-07T23:56:40.109Z,94.00
2018-07-07T23:59:08.768Z,93.90
